sensor_id;sensor_type;location;lat;lon;timestamp;temperature;humidity
306;DHT22;137;48.578;9.180;2022-08-20T00:01:57;19.60;98.20
306;DHT22;137;48.578;9.180;2022-08-20T00:04:24;19.60;98.20
306;DHT22;137;48.578;9.180;2022-08-20T00:06:51;19.60;98.20
306;DHT22;137;48.578;9.180;2022-08-20T00:09:18;19.50;98.20
306;DHT22;137;48.578;9.180;2022-08-20T00:11:46;19.50;98.20
306;DHT22;137;48.578;9.180;2022-08-20T00:14:13;19.50;98.20
306;DHT22;137;48.578;9.180;2022-08-20T00:16:40;19.50;98.20
306;DHT22;137;48.578;9.180;2022-08-20T00:19:08;19.40;98.20
306;DHT22;137;48.578;9.180;2022-08-20T00:21:35;19.40;98.20
306;DHT22;137;48.578;9.180;2022-08-20T00:24:03;19.30;98.20
306;DHT22;137;48.578;9.180;2022-08-20T00:26:30;19.30;98.20
306;DHT22;137;48.578;9.180;2022-08-20T00:28:59;19.20;98.20
306;DHT22;137;48.578;9.180;2022-08-20T00:31:26;19.10;98.20
306;DHT22;137;48.578;9.180;2022-08-20T00:33:53;19.10;98.20
306;DHT22;137;48.578;9.180;2022-08-20T00:36:20;19.00;98.20
306;DHT22;137;48.578;9.180;2022-08-20T00:38:47;18.90;98.20
306;DHT22;137;48.578;9.180;2022-08-20T00:41:24;19.00;98.20
306;DHT22;137;48.578;9.180;2022-08-20T00:44:06;19.00;98.20
306;DHT22;137;48.578;9.180;2022-08-20T00:46:34;19.00;98.20
306;DHT22;137;48.578;9.180;2022-08-20T00:49:02;19.00;98.20
306;DHT22;137;48.578;9.180;2022-08-20T00:51:36;19.10;98.20
306;DHT22;137;48.578;9.180;2022-08-20T00:54:08;19.10;98.20
306;DHT22;137;48.578;9.180;2022-08-20T00:56:37;19.00;98.20
306;DHT22;137;48.578;9.180;2022-08-20T00:59:09;19.10;98.20
306;DHT22;137;48.578;9.180;2022-08-20T01:01:38;19.10;98.20
306;DHT22;137;48.578;9.180;2022-08-20T01:04:05;19.10;98.20
306;DHT22;137;48.578;9.180;2022-08-20T01:06:32;19.20;98.20
306;DHT22;137;48.578;9.180;2022-08-20T01:08:59;19.20;98.20
306;DHT22;137;48.578;9.180;2022-08-20T01:11:27;19.10;98.20
306;DHT22;137;48.578;9.180;2022-08-20T01:13:58;19.20;98.20
306;DHT22;137;48.578;9.180;2022-08-20T01:16:30;19.10;98.20
306;DHT22;137;48.578;9.180;2022-08-20T01:18:58;19.10;98.20
306;DHT22;137;48.578;9.180;2022-08-20T01:21:26;19.10;98.20
306;DHT22;137;48.578;9.180;2022-08-20T01:24:00;19.10;98.20
306;DHT22;137;48.578;9.180;2022-08-20T01:26:30;19.10;98.20
306;DHT22;137;48.578;9.180;2022-08-20T01:29:03;19.10;98.20
306;DHT22;137;48.578;9.180;2022-08-20T01:31:38;19.10;98.20
306;DHT22;137;48.578;9.180;2022-08-20T01:34:07;19.10;98.20
306;DHT22;137;48.578;9.180;2022-08-20T01:36:37;19.10;98.20
306;DHT22;137;48.578;9.180;2022-08-20T01:39:06;19.00;98.20
306;DHT22;137;48.578;9.180;2022-08-20T01:41:43;19.00;98.20
306;DHT22;137;48.578;9.180;2022-08-20T01:44:13;19.00;98.20
306;DHT22;137;48.578;9.180;2022-08-20T01:46:42;19.00;98.20
306;DHT22;137;48.578;9.180;2022-08-20T01:49:12;19.00;98.20
306;DHT22;137;48.578;9.180;2022-08-20T01:51:39;19.00;98.20
306;DHT22;137;48.578;9.180;2022-08-20T01:54:06;19.00;98.20
306;DHT22;137;48.578;9.180;2022-08-20T01:56:34;19.00;98.20
306;DHT22;137;48.578;9.180;2022-08-20T01:59:04;19.00;98.20
306;DHT22;137;48.578;9.180;2022-08-20T02:01:34;18.90;98.20
306;DHT22;137;48.578;9.180;2022-08-20T02:04:04;18.90;98.20
306;DHT22;137;48.578;9.180;2022-08-20T02:06:33;18.90;98.20
306;DHT22;137;48.578;9.180;2022-08-20T02:09:02;18.80;98.20
306;DHT22;137;48.578;9.180;2022-08-20T02:11:31;18.80;98.20
306;DHT22;137;48.578;9.180;2022-08-20T02:13:59;18.80;98.20
306;DHT22;137;48.578;9.180;2022-08-20T02:16:29;18.80;98.20
306;DHT22;137;48.578;9.180;2022-08-20T02:18:59;18.80;98.20
306;DHT22;137;48.578;9.180;2022-08-20T02:21:30;18.80;98.20
306;DHT22;137;48.578;9.180;2022-08-20T02:23:58;18.80;98.20
306;DHT22;137;48.578;9.180;2022-08-20T02:26:26;18.80;98.20
306;DHT22;137;48.578;9.180;2022-08-20T02:28:54;18.80;98.20
306;DHT22;137;48.578;9.180;2022-08-20T02:31:22;18.90;98.20
306;DHT22;137;48.578;9.180;2022-08-20T02:33:51;18.90;98.20
306;DHT22;137;48.578;9.180;2022-08-20T02:36:18;18.90;98.20
306;DHT22;137;48.578;9.180;2022-08-20T02:38:45;18.90;98.20
306;DHT22;137;48.578;9.180;2022-08-20T02:41:12;18.80;98.20
306;DHT22;137;48.578;9.180;2022-08-20T02:43:39;18.90;98.20
306;DHT22;137;48.578;9.180;2022-08-20T02:46:07;18.90;98.20
306;DHT22;137;48.578;9.180;2022-08-20T02:48:33;18.90;98.20
306;DHT22;137;48.578;9.180;2022-08-20T02:51:04;18.90;98.20
306;DHT22;137;48.578;9.180;2022-08-20T02:53:34;18.90;98.20
306;DHT22;137;48.578;9.180;2022-08-20T02:56:03;18.90;98.20
306;DHT22;137;48.578;9.180;2022-08-20T02:58:30;18.80;98.20
306;DHT22;137;48.578;9.180;2022-08-20T03:00:58;18.80;98.20
306;DHT22;137;48.578;9.180;2022-08-20T03:03:24;18.80;98.20
306;DHT22;137;48.578;9.180;2022-08-20T03:05:55;18.90;98.20
306;DHT22;137;48.578;9.180;2022-08-20T03:08:24;18.90;98.20
306;DHT22;137;48.578;9.180;2022-08-20T03:10:51;18.80;98.20
306;DHT22;137;48.578;9.180;2022-08-20T03:13:19;18.80;98.20
306;DHT22;137;48.578;9.180;2022-08-20T03:15:48;18.70;98.20
306;DHT22;137;48.578;9.180;2022-08-20T03:18:16;18.70;98.20
306;DHT22;137;48.578;9.180;2022-08-20T03:20:44;18.60;98.20
306;DHT22;137;48.578;9.180;2022-08-20T03:23:11;18.60;98.20
306;DHT22;137;48.578;9.180;2022-08-20T03:25:40;18.50;98.20
306;DHT22;137;48.578;9.180;2022-08-20T03:28:08;18.50;98.20
306;DHT22;137;48.578;9.180;2022-08-20T03:30:35;18.50;98.20
306;DHT22;137;48.578;9.180;2022-08-20T03:33:02;18.50;98.20
306;DHT22;137;48.578;9.180;2022-08-20T03:35:32;18.50;98.20
306;DHT22;137;48.578;9.180;2022-08-20T03:38:00;18.50;98.20
306;DHT22;137;48.578;9.180;2022-08-20T03:40:34;18.50;98.20
306;DHT22;137;48.578;9.180;2022-08-20T03:43:03;18.40;98.20
306;DHT22;137;48.578;9.180;2022-08-20T03:45:30;18.40;98.20
306;DHT22;137;48.578;9.180;2022-08-20T03:47:58;18.30;98.20
306;DHT22;137;48.578;9.180;2022-08-20T03:50:28;18.40;98.20
306;DHT22;137;48.578;9.180;2022-08-20T03:52:56;18.40;98.20
306;DHT22;137;48.578;9.180;2022-08-20T03:55:24;18.40;98.20
306;DHT22;137;48.578;9.180;2022-08-20T03:57:53;18.40;98.20
306;DHT22;137;48.578;9.180;2022-08-20T04:00:24;18.40;98.20
306;DHT22;137;48.578;9.180;2022-08-20T04:02:52;18.40;98.20
306;DHT22;137;48.578;9.180;2022-08-20T04:05:19;18.40;98.20
306;DHT22;137;48.578;9.180;2022-08-20T04:07:46;18.40;98.20
306;DHT22;137;48.578;9.180;2022-08-20T04:10:13;18.40;98.20
306;DHT22;137;48.578;9.180;2022-08-20T04:12:40;18.40;98.20
306;DHT22;137;48.578;9.180;2022-08-20T04:15:10;18.50;98.20
306;DHT22;137;48.578;9.180;2022-08-20T04:17:39;18.50;98.20
306;DHT22;137;48.578;9.180;2022-08-20T04:20:09;18.50;98.20
306;DHT22;137;48.578;9.180;2022-08-20T04:22:36;18.50;98.20
306;DHT22;137;48.578;9.180;2022-08-20T04:25:05;18.60;98.20
306;DHT22;137;48.578;9.180;2022-08-20T04:27:33;18.60;98.20
306;DHT22;137;48.578;9.180;2022-08-20T04:30:01;18.60;98.20
306;DHT22;137;48.578;9.180;2022-08-20T04:32:28;18.60;98.20
306;DHT22;137;48.578;9.180;2022-08-20T04:34:57;18.60;98.20
306;DHT22;137;48.578;9.180;2022-08-20T04:37:25;18.60;98.20
306;DHT22;137;48.578;9.180;2022-08-20T04:39:52;18.60;98.20
306;DHT22;137;48.578;9.180;2022-08-20T04:42:36;18.60;98.20
306;DHT22;137;48.578;9.180;2022-08-20T04:45:05;18.60;98.20
306;DHT22;137;48.578;9.180;2022-08-20T04:47:33;18.60;98.20
306;DHT22;137;48.578;9.180;2022-08-20T04:50:02;18.60;98.20
306;DHT22;137;48.578;9.180;2022-08-20T04:52:29;18.60;98.20
306;DHT22;137;48.578;9.180;2022-08-20T04:54:57;18.60;98.20
306;DHT22;137;48.578;9.180;2022-08-20T04:57:24;18.60;98.20
306;DHT22;137;48.578;9.180;2022-08-20T04:59:51;18.60;98.20
306;DHT22;137;48.578;9.180;2022-08-20T05:02:18;18.70;98.20
306;DHT22;137;48.578;9.180;2022-08-20T05:04:45;18.80;98.20
306;DHT22;137;48.578;9.180;2022-08-20T05:07:15;18.80;98.20
306;DHT22;137;48.578;9.180;2022-08-20T05:09:43;18.80;98.20
306;DHT22;137;48.578;9.180;2022-08-20T05:12:10;18.90;98.20
306;DHT22;137;48.578;9.180;2022-08-20T05:14:39;18.90;98.20
306;DHT22;137;48.578;9.180;2022-08-20T05:17:06;19.00;98.20
306;DHT22;137;48.578;9.180;2022-08-20T05:19:34;19.00;98.20
306;DHT22;137;48.578;9.180;2022-08-20T05:22:02;19.00;98.20
306;DHT22;137;48.578;9.180;2022-08-20T05:24:31;19.00;98.20
306;DHT22;137;48.578;9.180;2022-08-20T05:26:58;19.00;98.20
306;DHT22;137;48.578;9.180;2022-08-20T05:29:26;19.10;98.20
306;DHT22;137;48.578;9.180;2022-08-20T05:31:53;19.10;98.20
306;DHT22;137;48.578;9.180;2022-08-20T05:34:21;19.10;98.20
306;DHT22;137;48.578;9.180;2022-08-20T05:36:50;19.10;98.20
306;DHT22;137;48.578;9.180;2022-08-20T05:39:19;19.10;98.20
306;DHT22;137;48.578;9.180;2022-08-20T05:41:48;19.00;98.20
306;DHT22;137;48.578;9.180;2022-08-20T05:44:16;18.90;98.20
306;DHT22;137;48.578;9.180;2022-08-20T05:46:45;18.90;98.20
306;DHT22;137;48.578;9.180;2022-08-20T05:49:14;19.00;98.20
306;DHT22;137;48.578;9.180;2022-08-20T05:51:41;19.00;98.20
306;DHT22;137;48.578;9.180;2022-08-20T05:54:08;19.00;98.20
306;DHT22;137;48.578;9.180;2022-08-20T05:56:35;19.10;98.20
306;DHT22;137;48.578;9.180;2022-08-20T05:59:06;19.10;98.20
306;DHT22;137;48.578;9.180;2022-08-20T06:01:35;19.30;98.20
306;DHT22;137;48.578;9.180;2022-08-20T06:04:03;19.40;98.20
306;DHT22;137;48.578;9.180;2022-08-20T06:06:47;19.50;98.20
306;DHT22;137;48.578;9.180;2022-08-20T06:09:17;19.60;98.20
306;DHT22;137;48.578;9.180;2022-08-20T06:11:44;19.60;98.20
306;DHT22;137;48.578;9.180;2022-08-20T06:14:12;19.70;98.20
306;DHT22;137;48.578;9.180;2022-08-20T06:16:41;19.70;98.20
306;DHT22;137;48.578;9.180;2022-08-20T06:19:08;19.90;98.20
306;DHT22;137;48.578;9.180;2022-08-20T06:21:35;20.10;98.20
306;DHT22;137;48.578;9.180;2022-08-20T06:24:03;20.20;98.20
306;DHT22;137;48.578;9.180;2022-08-20T06:26:30;20.40;98.20
306;DHT22;137;48.578;9.180;2022-08-20T06:28:59;20.60;98.20
306;DHT22;137;48.578;9.180;2022-08-20T06:31:27;20.70;98.20
306;DHT22;137;48.578;9.180;2022-08-20T06:33:54;20.80;98.20
306;DHT22;137;48.578;9.180;2022-08-20T06:36:21;20.90;98.20
306;DHT22;137;48.578;9.180;2022-08-20T06:38:48;21.00;98.20
306;DHT22;137;48.578;9.180;2022-08-20T06:41:14;21.00;98.20
306;DHT22;137;48.578;9.180;2022-08-20T06:43:41;21.10;98.20
306;DHT22;137;48.578;9.180;2022-08-20T06:46:08;21.40;98.20
306;DHT22;137;48.578;9.180;2022-08-20T06:48:36;21.80;98.20
306;DHT22;137;48.578;9.180;2022-08-20T06:51:03;22.00;98.20
306;DHT22;137;48.578;9.180;2022-08-20T06:53:31;22.20;98.20
306;DHT22;137;48.578;9.180;2022-08-20T06:55:58;22.20;98.20
306;DHT22;137;48.578;9.180;2022-08-20T06:58:25;22.00;98.20
306;DHT22;137;48.578;9.180;2022-08-20T07:00:52;22.10;98.20
306;DHT22;137;48.578;9.180;2022-08-20T07:03:19;22.10;98.20
306;DHT22;137;48.578;9.180;2022-08-20T07:05:47;21.90;98.20
306;DHT22;137;48.578;9.180;2022-08-20T07:08:15;22.00;98.20
306;DHT22;137;48.578;9.180;2022-08-20T07:10:43;21.90;98.20
306;DHT22;137;48.578;9.180;2022-08-20T07:13:11;21.80;98.20
306;DHT22;137;48.578;9.180;2022-08-20T07:15:39;21.90;98.20
306;DHT22;137;48.578;9.180;2022-08-20T07:18:06;21.90;98.20
306;DHT22;137;48.578;9.180;2022-08-20T07:20:35;21.90;98.20
306;DHT22;137;48.578;9.180;2022-08-20T07:23:06;21.90;98.20
306;DHT22;137;48.578;9.180;2022-08-20T07:25:37;21.80;98.20
306;DHT22;137;48.578;9.180;2022-08-20T07:28:07;21.90;98.20
306;DHT22;137;48.578;9.180;2022-08-20T07:30:35;21.90;98.20
306;DHT22;137;48.578;9.180;2022-08-20T07:33:19;21.90;98.20
306;DHT22;137;48.578;9.180;2022-08-20T07:35:46;22.10;98.20
306;DHT22;137;48.578;9.180;2022-08-20T07:38:18;21.90;98.20
306;DHT22;137;48.578;9.180;2022-08-20T07:40:48;22.10;98.20
306;DHT22;137;48.578;9.180;2022-08-20T07:43:15;22.10;98.20
306;DHT22;137;48.578;9.180;2022-08-20T07:45:42;22.20;98.20
306;DHT22;137;48.578;9.180;2022-08-20T07:48:11;22.10;98.20
306;DHT22;137;48.578;9.180;2022-08-20T07:50:38;22.20;98.20
306;DHT22;137;48.578;9.180;2022-08-20T07:53:06;22.50;98.20
306;DHT22;137;48.578;9.180;2022-08-20T07:55:34;22.60;98.20
306;DHT22;137;48.578;9.180;2022-08-20T07:58:07;22.50;98.20
306;DHT22;137;48.578;9.180;2022-08-20T08:00:34;22.70;98.20
306;DHT22;137;48.578;9.180;2022-08-20T08:03:01;22.80;98.20
306;DHT22;137;48.578;9.180;2022-08-20T08:05:28;22.60;98.20
306;DHT22;137;48.578;9.180;2022-08-20T08:07:56;22.60;98.20
306;DHT22;137;48.578;9.180;2022-08-20T08:10:24;22.80;98.20
306;DHT22;137;48.578;9.180;2022-08-20T08:12:55;23.00;98.20
306;DHT22;137;48.578;9.180;2022-08-20T08:15:26;23.40;98.20
306;DHT22;137;48.578;9.180;2022-08-20T08:17:54;23.70;98.20
306;DHT22;137;48.578;9.180;2022-08-20T08:20:24;23.90;98.20
306;DHT22;137;48.578;9.180;2022-08-20T08:22:51;24.20;98.20
306;DHT22;137;48.578;9.180;2022-08-20T08:25:18;24.50;98.20
306;DHT22;137;48.578;9.180;2022-08-20T08:27:45;24.80;98.20
306;DHT22;137;48.578;9.180;2022-08-20T08:30:15;25.10;98.20
306;DHT22;137;48.578;9.180;2022-08-20T08:32:42;25.20;98.20
306;DHT22;137;48.578;9.180;2022-08-20T08:35:23;25.30;98.20
306;DHT22;137;48.578;9.180;2022-08-20T08:37:50;25.40;98.20
306;DHT22;137;48.578;9.180;2022-08-20T08:40:18;25.20;98.20
306;DHT22;137;48.578;9.180;2022-08-20T08:42:47;25.40;98.20
306;DHT22;137;48.578;9.180;2022-08-20T08:45:21;25.60;98.20
306;DHT22;137;48.578;9.180;2022-08-20T08:47:48;25.80;98.20
306;DHT22;137;48.578;9.180;2022-08-20T08:50:20;25.90;98.20
306;DHT22;137;48.578;9.180;2022-08-20T08:52:50;26.10;98.20
306;DHT22;137;48.578;9.180;2022-08-20T08:55:19;26.40;98.20
306;DHT22;137;48.578;9.180;2022-08-20T08:57:47;26.70;98.20
306;DHT22;137;48.578;9.180;2022-08-20T09:00:17;26.80;98.20
306;DHT22;137;48.578;9.180;2022-08-20T09:02:56;26.90;98.20
306;DHT22;137;48.578;9.180;2022-08-20T09:05:28;26.90;98.20
306;DHT22;137;48.578;9.180;2022-08-20T09:07:57;27.00;98.20
306;DHT22;137;48.578;9.180;2022-08-20T09:10:25;26.90;98.20
306;DHT22;137;48.578;9.180;2022-08-20T09:12:52;26.90;98.20
306;DHT22;137;48.578;9.180;2022-08-20T09:15:20;26.80;98.20
306;DHT22;137;48.578;9.180;2022-08-20T09:17:47;26.60;98.20
306;DHT22;137;48.578;9.180;2022-08-20T09:20:15;26.60;98.20
306;DHT22;137;48.578;9.180;2022-08-20T09:22:43;26.70;98.20
306;DHT22;137;48.578;9.180;2022-08-20T09:25:10;27.10;98.20
306;DHT22;137;48.578;9.180;2022-08-20T09:27:37;27.50;98.20
306;DHT22;137;48.578;9.180;2022-08-20T09:30:05;27.50;98.20
306;DHT22;137;48.578;9.180;2022-08-20T09:32:32;27.30;98.20
306;DHT22;137;48.578;9.180;2022-08-20T09:34:59;27.00;98.20
306;DHT22;137;48.578;9.180;2022-08-20T09:37:29;27.10;98.20
306;DHT22;137;48.578;9.180;2022-08-20T09:39:56;27.10;98.20
306;DHT22;137;48.578;9.180;2022-08-20T09:42:25;27.10;98.20
306;DHT22;137;48.578;9.180;2022-08-20T09:44:52;27.00;98.20
306;DHT22;137;48.578;9.180;2022-08-20T09:47:20;26.60;98.20
306;DHT22;137;48.578;9.180;2022-08-20T09:49:47;26.40;98.20
306;DHT22;137;48.578;9.180;2022-08-20T09:52:19;25.90;98.20
306;DHT22;137;48.578;9.180;2022-08-20T09:54:48;26.00;98.20
306;DHT22;137;48.578;9.180;2022-08-20T09:57:16;26.50;98.20
306;DHT22;137;48.578;9.180;2022-08-20T09:59:47;27.40;98.20
306;DHT22;137;48.578;9.180;2022-08-20T10:02:15;28.00;98.20
306;DHT22;137;48.578;9.180;2022-08-20T10:04:42;28.50;98.20
306;DHT22;137;48.578;9.180;2022-08-20T10:07:09;28.70;98.20
306;DHT22;137;48.578;9.180;2022-08-20T10:09:36;28.30;98.20
306;DHT22;137;48.578;9.180;2022-08-20T10:12:05;27.20;98.20
306;DHT22;137;48.578;9.180;2022-08-20T10:14:32;26.70;98.20
306;DHT22;137;48.578;9.180;2022-08-20T10:17:00;26.00;98.20
306;DHT22;137;48.578;9.180;2022-08-20T10:19:28;24.60;98.20
306;DHT22;137;48.578;9.180;2022-08-20T10:21:56;23.80;98.20
306;DHT22;137;48.578;9.180;2022-08-20T10:24:23;23.40;98.20
306;DHT22;137;48.578;9.180;2022-08-20T10:26:53;23.70;98.20
306;DHT22;137;48.578;9.180;2022-08-20T10:29:22;24.00;98.20
306;DHT22;137;48.578;9.180;2022-08-20T10:31:49;24.30;98.20
306;DHT22;137;48.578;9.180;2022-08-20T10:34:16;24.60;98.20
306;DHT22;137;48.578;9.180;2022-08-20T10:36:43;24.80;98.20
306;DHT22;137;48.578;9.180;2022-08-20T10:39:10;24.90;98.20
306;DHT22;137;48.578;9.180;2022-08-20T10:41:37;24.90;98.20
306;DHT22;137;48.578;9.180;2022-08-20T10:44:04;25.10;98.20
306;DHT22;137;48.578;9.180;2022-08-20T10:46:32;25.10;98.20
306;DHT22;137;48.578;9.180;2022-08-20T10:48:59;25.00;98.20
306;DHT22;137;48.578;9.180;2022-08-20T10:51:26;24.90;98.20
306;DHT22;137;48.578;9.180;2022-08-20T10:53:52;24.50;98.20
306;DHT22;137;48.578;9.180;2022-08-20T10:56:19;23.90;98.20
306;DHT22;137;48.578;9.180;2022-08-20T10:58:46;23.20;98.20
306;DHT22;137;48.578;9.180;2022-08-20T11:01:13;22.10;98.20
306;DHT22;137;48.578;9.180;2022-08-20T11:03:41;20.60;98.20
306;DHT22;137;48.578;9.180;2022-08-20T11:06:08;19.90;98.20
306;DHT22;137;48.578;9.180;2022-08-20T11:08:35;19.90;98.20
306;DHT22;137;48.578;9.180;2022-08-20T11:11:02;19.90;98.20
306;DHT22;137;48.578;9.180;2022-08-20T11:13:29;19.80;98.20
306;DHT22;137;48.578;9.180;2022-08-20T11:15:56;19.90;98.20
306;DHT22;137;48.578;9.180;2022-08-20T11:18:23;20.10;98.20
306;DHT22;137;48.578;9.180;2022-08-20T11:20:51;20.20;98.20
306;DHT22;137;48.578;9.180;2022-08-20T11:23:18;20.20;98.20
306;DHT22;137;48.578;9.180;2022-08-20T11:25:45;20.30;98.20
306;DHT22;137;48.578;9.180;2022-08-20T11:28:12;20.50;98.20
306;DHT22;137;48.578;9.180;2022-08-20T11:30:39;20.60;98.20
306;DHT22;137;48.578;9.180;2022-08-20T11:33:06;20.60;98.20
306;DHT22;137;48.578;9.180;2022-08-20T11:35:34;20.70;98.20
306;DHT22;137;48.578;9.180;2022-08-20T11:38:03;20.90;98.20
306;DHT22;137;48.578;9.180;2022-08-20T11:40:30;21.10;98.20
306;DHT22;137;48.578;9.180;2022-08-20T11:42:57;21.10;98.20
306;DHT22;137;48.578;9.180;2022-08-20T11:45:24;21.30;98.20
306;DHT22;137;48.578;9.180;2022-08-20T11:47:51;21.50;98.20
306;DHT22;137;48.578;9.180;2022-08-20T11:50:20;21.70;98.20
306;DHT22;137;48.578;9.180;2022-08-20T11:52:47;21.80;98.20
306;DHT22;137;48.578;9.180;2022-08-20T11:55:16;21.90;98.20
306;DHT22;137;48.578;9.180;2022-08-20T11:57:45;21.90;98.20
306;DHT22;137;48.578;9.180;2022-08-20T12:00:16;22.00;98.20
306;DHT22;137;48.578;9.180;2022-08-20T12:02:43;22.10;98.20
306;DHT22;137;48.578;9.180;2022-08-20T12:05:12;22.30;98.20
306;DHT22;137;48.578;9.180;2022-08-20T12:07:48;22.50;98.20
306;DHT22;137;48.578;9.180;2022-08-20T12:10:16;22.70;98.20
306;DHT22;137;48.578;9.180;2022-08-20T12:12:42;22.80;98.20
306;DHT22;137;48.578;9.180;2022-08-20T12:15:10;22.90;98.20
306;DHT22;137;48.578;9.180;2022-08-20T12:17:37;22.90;98.20
306;DHT22;137;48.578;9.180;2022-08-20T12:20:07;22.90;98.20
306;DHT22;137;48.578;9.180;2022-08-20T12:22:34;22.90;98.20
306;DHT22;137;48.578;9.180;2022-08-20T12:25:01;22.90;98.20
306;DHT22;137;48.578;9.180;2022-08-20T12:27:32;22.90;98.20
306;DHT22;137;48.578;9.180;2022-08-20T12:30:02;23.10;98.20
306;DHT22;137;48.578;9.180;2022-08-20T12:32:30;23.20;98.20
306;DHT22;137;48.578;9.180;2022-08-20T12:34:58;23.40;98.20
306;DHT22;137;48.578;9.180;2022-08-20T12:37:28;23.50;98.20
306;DHT22;137;48.578;9.180;2022-08-20T12:39:56;23.50;98.20
306;DHT22;137;48.578;9.180;2022-08-20T12:42:23;23.60;98.20
306;DHT22;137;48.578;9.180;2022-08-20T12:44:52;23.60;98.20
306;DHT22;137;48.578;9.180;2022-08-20T12:47:21;23.60;98.20
306;DHT22;137;48.578;9.180;2022-08-20T12:49:51;23.70;98.20
306;DHT22;137;48.578;9.180;2022-08-20T12:52:19;23.90;98.20
306;DHT22;137;48.578;9.180;2022-08-20T12:54:47;24.00;98.20
306;DHT22;137;48.578;9.180;2022-08-20T12:57:14;24.20;98.20
306;DHT22;137;48.578;9.180;2022-08-20T12:59:41;24.40;98.20
306;DHT22;137;48.578;9.180;2022-08-20T13:02:10;24.70;98.20
306;DHT22;137;48.578;9.180;2022-08-20T13:04:38;24.60;98.20
306;DHT22;137;48.578;9.180;2022-08-20T13:07:05;24.60;98.20
306;DHT22;137;48.578;9.180;2022-08-20T13:09:32;24.50;98.20
306;DHT22;137;48.578;9.180;2022-08-20T13:11:58;24.40;98.20
306;DHT22;137;48.578;9.180;2022-08-20T13:14:25;24.60;98.20
306;DHT22;137;48.578;9.180;2022-08-20T13:16:56;24.60;98.20
306;DHT22;137;48.578;9.180;2022-08-20T13:19:25;24.70;98.20
306;DHT22;137;48.578;9.180;2022-08-20T13:21:52;24.90;98.20
306;DHT22;137;48.578;9.180;2022-08-20T13:24:19;25.10;98.20
306;DHT22;137;48.578;9.180;2022-08-20T13:26:47;25.40;98.20
306;DHT22;137;48.578;9.180;2022-08-20T13:29:14;25.80;98.20
306;DHT22;137;48.578;9.180;2022-08-20T13:31:42;26.30;98.20
306;DHT22;137;48.578;9.180;2022-08-20T13:34:09;26.40;98.20
306;DHT22;137;48.578;9.180;2022-08-20T13:36:37;26.50;98.20
306;DHT22;137;48.578;9.180;2022-08-20T13:39:05;26.50;98.20
306;DHT22;137;48.578;9.180;2022-08-20T13:41:33;26.30;98.20
306;DHT22;137;48.578;9.180;2022-08-20T13:44:00;26.10;98.20
306;DHT22;137;48.578;9.180;2022-08-20T13:46:26;25.90;98.20
306;DHT22;137;48.578;9.180;2022-08-20T13:48:53;25.80;98.20
306;DHT22;137;48.578;9.180;2022-08-20T13:51:20;26.30;98.20
306;DHT22;137;48.578;9.180;2022-08-20T13:53:48;26.40;98.20
306;DHT22;137;48.578;9.180;2022-08-20T13:56:15;26.60;98.20
306;DHT22;137;48.578;9.180;2022-08-20T13:58:42;26.90;98.20
306;DHT22;137;48.578;9.180;2022-08-20T14:01:09;27.60;98.20
306;DHT22;137;48.578;9.180;2022-08-20T14:03:35;28.20;98.20
306;DHT22;137;48.578;9.180;2022-08-20T14:06:03;27.90;98.20
306;DHT22;137;48.578;9.180;2022-08-20T14:08:30;27.40;98.20
306;DHT22;137;48.578;9.180;2022-08-20T14:10:58;27.30;98.20
306;DHT22;137;48.578;9.180;2022-08-20T14:13:26;27.00;98.20
306;DHT22;137;48.578;9.180;2022-08-20T14:15:53;27.10;98.20
306;DHT22;137;48.578;9.180;2022-08-20T14:18:21;27.10;98.20
306;DHT22;137;48.578;9.180;2022-08-20T14:20:48;26.60;98.20
306;DHT22;137;48.578;9.180;2022-08-20T14:23:15;26.30;98.20
306;DHT22;137;48.578;9.180;2022-08-20T14:25:44;25.90;98.20
306;DHT22;137;48.578;9.180;2022-08-20T14:28:17;25.70;98.20
306;DHT22;137;48.578;9.180;2022-08-20T14:30:45;25.60;98.20
306;DHT22;137;48.578;9.180;2022-08-20T14:33:12;25.60;98.20
306;DHT22;137;48.578;9.180;2022-08-20T14:35:40;25.60;98.20
306;DHT22;137;48.578;9.180;2022-08-20T14:38:07;25.80;98.20
306;DHT22;137;48.578;9.180;2022-08-20T14:40:34;25.70;98.20
306;DHT22;137;48.578;9.180;2022-08-20T14:43:01;25.60;98.20
306;DHT22;137;48.578;9.180;2022-08-20T14:45:30;25.30;98.20
306;DHT22;137;48.578;9.180;2022-08-20T14:47:57;25.10;98.20
306;DHT22;137;48.578;9.180;2022-08-20T14:50:26;25.00;98.20
306;DHT22;137;48.578;9.180;2022-08-20T14:52:54;24.90;98.20
306;DHT22;137;48.578;9.180;2022-08-20T14:55:23;24.80;98.20
306;DHT22;137;48.578;9.180;2022-08-20T14:57:50;24.90;98.20
306;DHT22;137;48.578;9.180;2022-08-20T15:00:19;24.80;98.20
306;DHT22;137;48.578;9.180;2022-08-20T15:02:48;24.80;98.20
306;DHT22;137;48.578;9.180;2022-08-20T15:05:15;24.90;98.20
306;DHT22;137;48.578;9.180;2022-08-20T15:07:44;24.90;98.20
306;DHT22;137;48.578;9.180;2022-08-20T15:10:14;25.10;98.20
306;DHT22;137;48.578;9.180;2022-08-20T15:12:41;25.20;98.20
306;DHT22;137;48.578;9.180;2022-08-20T15:15:10;25.50;98.20
306;DHT22;137;48.578;9.180;2022-08-20T15:17:40;25.70;98.20
306;DHT22;137;48.578;9.180;2022-08-20T15:20:11;25.90;98.20
306;DHT22;137;48.578;9.180;2022-08-20T15:22:38;26.10;98.20
306;DHT22;137;48.578;9.180;2022-08-20T15:25:07;26.20;98.20
306;DHT22;137;48.578;9.180;2022-08-20T15:27:34;26.40;98.20
306;DHT22;137;48.578;9.180;2022-08-20T15:30:04;26.40;98.20
306;DHT22;137;48.578;9.180;2022-08-20T15:32:31;26.20;98.20
306;DHT22;137;48.578;9.180;2022-08-20T15:34:58;25.80;98.20
306;DHT22;137;48.578;9.180;2022-08-20T15:37:27;25.50;98.20
306;DHT22;137;48.578;9.180;2022-08-20T15:39:54;25.40;98.20
306;DHT22;137;48.578;9.180;2022-08-20T15:42:22;25.30;98.20
306;DHT22;137;48.578;9.180;2022-08-20T15:44:49;25.40;98.20
306;DHT22;137;48.578;9.180;2022-08-20T15:47:22;25.40;98.20
306;DHT22;137;48.578;9.180;2022-08-20T15:50:00;25.50;98.20
306;DHT22;137;48.578;9.180;2022-08-20T15:52:32;25.60;98.20
306;DHT22;137;48.578;9.180;2022-08-20T15:55:01;25.60;98.20
306;DHT22;137;48.578;9.180;2022-08-20T15:57:39;25.60;98.20
306;DHT22;137;48.578;9.180;2022-08-20T16:00:12;25.50;98.20
306;DHT22;137;48.578;9.180;2022-08-20T16:03:14;25.60;98.20
306;DHT22;137;48.578;9.180;2022-08-20T16:05:49;25.60;98.20
306;DHT22;137;48.578;9.180;2022-08-20T16:11:20;25.40;98.20
306;DHT22;137;48.578;9.180;2022-08-20T16:13:53;25.30;98.20
306;DHT22;137;48.578;9.180;2022-08-20T16:16:25;25.10;98.20
306;DHT22;137;48.578;9.180;2022-08-20T16:18:56;25.00;98.20
306;DHT22;137;48.578;9.180;2022-08-20T16:21:29;24.90;98.20
306;DHT22;137;48.578;9.180;2022-08-20T16:23:57;25.00;98.20
306;DHT22;137;48.578;9.180;2022-08-20T16:26:35;24.90;98.20
306;DHT22;137;48.578;9.180;2022-08-20T16:29:09;24.90;98.20
306;DHT22;137;48.578;9.180;2022-08-20T16:31:45;24.90;98.20
306;DHT22;137;48.578;9.180;2022-08-20T16:34:22;24.80;98.20
306;DHT22;137;48.578;9.180;2022-08-20T16:36:56;24.70;98.20
306;DHT22;137;48.578;9.180;2022-08-20T16:39:27;24.80;98.20
306;DHT22;137;48.578;9.180;2022-08-20T16:41:59;24.90;98.20
306;DHT22;137;48.578;9.180;2022-08-20T16:44:33;24.90;98.20
306;DHT22;137;48.578;9.180;2022-08-20T16:47:12;24.90;98.20